sensor_id;sensor_type;location;lat;lon;timestamp;temperature;humidity
25753;DHT22;13600;50.816;4.416;2023-05-14T00:02:18;15.90;99.90
25753;DHT22;13600;50.816;4.416;2023-05-14T00:04:43;15.90;99.90
25753;DHT22;13600;50.816;4.416;2023-05-14T00:07:09;15.90;99.90
25753;DHT22;13600;50.816;4.416;2023-05-14T00:09:34;16.00;99.90
25753;DHT22;13600;50.816;4.416;2023-05-14T00:12:00;16.00;99.90
25753;DHT22;13600;50.816;4.416;2023-05-14T00:14:25;15.90;99.90
25753;DHT22;13600;50.816;4.416;2023-05-14T00:16:51;15.90;99.90
25753;DHT22;13600;50.816;4.416;2023-05-14T00:19:16;15.80;99.90
25753;DHT22;13600;50.816;4.416;2023-05-14T00:21:42;15.90;99.90
25753;DHT22;13600;50.816;4.416;2023-05-14T00:24:07;15.90;99.90
25753;DHT22;13600;50.816;4.416;2023-05-14T00:26:33;15.90;99.90
25753;DHT22;13600;50.816;4.416;2023-05-14T00:28:58;15.90;99.90
25753;DHT22;13600;50.816;4.416;2023-05-14T00:31:24;15.90;99.90
25753;DHT22;13600;50.816;4.416;2023-05-14T00:33:50;15.80;99.90
25753;DHT22;13600;50.816;4.416;2023-05-14T00:36:16;15.80;99.90
25753;DHT22;13600;50.816;4.416;2023-05-14T00:38:41;15.80;99.90
25753;DHT22;13600;50.816;4.416;2023-05-14T00:41:07;15.80;99.90
25753;DHT22;13600;50.816;4.416;2023-05-14T00:43:32;15.80;99.90
25753;DHT22;13600;50.816;4.416;2023-05-14T00:45:58;15.90;99.90
25753;DHT22;13600;50.816;4.416;2023-05-14T00:48:24;15.80;99.90
25753;DHT22;13600;50.816;4.416;2023-05-14T00:50:50;15.90;99.90
25753;DHT22;13600;50.816;4.416;2023-05-14T00:53:16;15.90;99.90
25753;DHT22;13600;50.816;4.416;2023-05-14T00:55:42;15.90;99.90
25753;DHT22;13600;50.816;4.416;2023-05-14T00:58:10;15.90;99.90
25753;DHT22;13600;50.816;4.416;2023-05-14T01:00:36;15.90;99.90
25753;DHT22;13600;50.816;4.416;2023-05-14T01:03:02;15.90;99.90
25753;DHT22;13600;50.816;4.416;2023-05-14T01:05:30;15.70;99.90
25753;DHT22;13600;50.816;4.416;2023-05-14T01:08:03;15.80;99.90
25753;DHT22;13600;50.816;4.416;2023-05-14T01:10:45;15.90;99.90
25753;DHT22;13600;50.816;4.416;2023-05-14T01:15:39;15.60;99.90
25753;DHT22;13600;50.816;4.416;2023-05-14T01:18:07;15.60;99.90
25753;DHT22;13600;50.816;4.416;2023-05-14T01:20:32;15.70;99.90
25753;DHT22;13600;50.816;4.416;2023-05-14T01:22:58;15.70;99.90
25753;DHT22;13600;50.816;4.416;2023-05-14T01:25:24;15.80;99.90
25753;DHT22;13600;50.816;4.416;2023-05-14T01:30:20;16.00;99.90
25753;DHT22;13600;50.816;4.416;2023-05-14T01:32:47;16.00;99.90
25753;DHT22;13600;50.816;4.416;2023-05-14T01:35:15;16.00;99.90
25753;DHT22;13600;50.816;4.416;2023-05-14T01:37:40;16.00;99.90
25753;DHT22;13600;50.816;4.416;2023-05-14T01:40:07;15.90;99.90
25753;DHT22;13600;50.816;4.416;2023-05-14T01:42:34;15.90;99.90
25753;DHT22;13600;50.816;4.416;2023-05-14T01:45:01;15.90;99.90
25753;DHT22;13600;50.816;4.416;2023-05-14T01:47:27;15.80;99.90
25753;DHT22;13600;50.816;4.416;2023-05-14T01:49:52;15.70;99.90
25753;DHT22;13600;50.816;4.416;2023-05-14T01:52:18;15.60;99.90
25753;DHT22;13600;50.816;4.416;2023-05-14T01:54:46;15.70;99.90
25753;DHT22;13600;50.816;4.416;2023-05-14T01:57:11;15.80;99.90
25753;DHT22;13600;50.816;4.416;2023-05-14T01:59:36;15.80;99.90
25753;DHT22;13600;50.816;4.416;2023-05-14T02:02:02;15.80;99.90
25753;DHT22;13600;50.816;4.416;2023-05-14T02:04:28;15.90;99.90
25753;DHT22;13600;50.816;4.416;2023-05-14T02:06:53;16.00;99.90
25753;DHT22;13600;50.816;4.416;2023-05-14T02:09:19;16.00;99.90
25753;DHT22;13600;50.816;4.416;2023-05-14T02:11:45;15.80;99.90
25753;DHT22;13600;50.816;4.416;2023-05-14T02:14:11;15.70;99.90
25753;DHT22;13600;50.816;4.416;2023-05-14T02:16:36;15.70;99.90
25753;DHT22;13600;50.816;4.416;2023-05-14T02:19:02;15.60;99.90
25753;DHT22;13600;50.816;4.416;2023-05-14T02:21:27;15.50;99.90
25753;DHT22;13600;50.816;4.416;2023-05-14T02:23:53;15.50;99.90
25753;DHT22;13600;50.816;4.416;2023-05-14T02:26:18;15.50;99.90
25753;DHT22;13600;50.816;4.416;2023-05-14T02:28:44;15.60;99.90
25753;DHT22;13600;50.816;4.416;2023-05-14T02:31:10;15.60;99.90
25753;DHT22;13600;50.816;4.416;2023-05-14T02:33:35;15.60;99.90
25753;DHT22;13600;50.816;4.416;2023-05-14T02:36:01;15.70;99.90
25753;DHT22;13600;50.816;4.416;2023-05-14T02:38:26;15.40;99.90
25753;DHT22;13600;50.816;4.416;2023-05-14T02:40:52;15.20;99.90
25753;DHT22;13600;50.816;4.416;2023-05-14T02:43:17;15.20;99.90
25753;DHT22;13600;50.816;4.416;2023-05-14T02:45:43;15.40;99.90
25753;DHT22;13600;50.816;4.416;2023-05-14T02:48:08;15.50;99.90
25753;DHT22;13600;50.816;4.416;2023-05-14T02:50:35;15.60;99.90
25753;DHT22;13600;50.816;4.416;2023-05-14T02:53:00;15.60;99.90
25753;DHT22;13600;50.816;4.416;2023-05-14T02:55:26;15.60;99.90
25753;DHT22;13600;50.816;4.416;2023-05-14T02:57:51;15.50;99.90
25753;DHT22;13600;50.816;4.416;2023-05-14T03:00:17;15.50;99.90
25753;DHT22;13600;50.816;4.416;2023-05-14T03:02:43;15.60;99.90
25753;DHT22;13600;50.816;4.416;2023-05-14T03:05:08;15.50;99.90
25753;DHT22;13600;50.816;4.416;2023-05-14T03:07:34;15.50;99.90
25753;DHT22;13600;50.816;4.416;2023-05-14T03:10:00;15.30;99.90
25753;DHT22;13600;50.816;4.416;2023-05-14T03:12:25;15.40;99.90
25753;DHT22;13600;50.816;4.416;2023-05-14T03:14:51;15.40;99.90
25753;DHT22;13600;50.816;4.416;2023-05-14T03:17:16;15.40;99.90
25753;DHT22;13600;50.816;4.416;2023-05-14T03:19:43;15.50;99.90
25753;DHT22;13600;50.816;4.416;2023-05-14T03:22:08;15.40;99.90
25753;DHT22;13600;50.816;4.416;2023-05-14T03:24:36;15.50;99.90
25753;DHT22;13600;50.816;4.416;2023-05-14T03:27:01;15.40;99.90
25753;DHT22;13600;50.816;4.416;2023-05-14T03:29:27;15.50;99.90
25753;DHT22;13600;50.816;4.416;2023-05-14T03:31:52;15.50;99.90
25753;DHT22;13600;50.816;4.416;2023-05-14T03:34:18;15.50;99.90
25753;DHT22;13600;50.816;4.416;2023-05-14T03:36:44;15.50;99.90
25753;DHT22;13600;50.816;4.416;2023-05-14T03:39:10;15.60;99.90
25753;DHT22;13600;50.816;4.416;2023-05-14T03:41:35;15.70;99.90
25753;DHT22;13600;50.816;4.416;2023-05-14T03:44:01;15.20;99.90
25753;DHT22;13600;50.816;4.416;2023-05-14T03:46:27;15.20;99.90
25753;DHT22;13600;50.816;4.416;2023-05-14T03:48:53;15.30;99.90
25753;DHT22;13600;50.816;4.416;2023-05-14T03:51:18;15.40;99.90
25753;DHT22;13600;50.816;4.416;2023-05-14T03:53:43;15.40;99.90
25753;DHT22;13600;50.816;4.416;2023-05-14T03:56:09;15.50;99.90
25753;DHT22;13600;50.816;4.416;2023-05-14T03:58:35;15.50;99.90
25753;DHT22;13600;50.816;4.416;2023-05-14T04:01:00;15.40;99.90
25753;DHT22;13600;50.816;4.416;2023-05-14T04:03:26;15.40;99.90
25753;DHT22;13600;50.816;4.416;2023-05-14T04:05:51;15.50;99.90
25753;DHT22;13600;50.816;4.416;2023-05-14T04:08:17;15.50;99.90
25753;DHT22;13600;50.816;4.416;2023-05-14T04:10:42;15.60;99.90
25753;DHT22;13600;50.816;4.416;2023-05-14T04:13:08;15.60;99.90
25753;DHT22;13600;50.816;4.416;2023-05-14T04:15:33;15.60;99.90
25753;DHT22;13600;50.816;4.416;2023-05-14T04:18:03;15.60;99.90
25753;DHT22;13600;50.816;4.416;2023-05-14T04:20:29;15.60;99.90
25753;DHT22;13600;50.816;4.416;2023-05-14T04:22:54;15.50;99.90
25753;DHT22;13600;50.816;4.416;2023-05-14T04:25:20;15.50;99.90
25753;DHT22;13600;50.816;4.416;2023-05-14T04:27:45;15.40;99.90
25753;DHT22;13600;50.816;4.416;2023-05-14T04:30:11;15.30;99.90
25753;DHT22;13600;50.816;4.416;2023-05-14T04:32:37;15.60;99.90
25753;DHT22;13600;50.816;4.416;2023-05-14T04:35:03;15.70;99.90
25753;DHT22;13600;50.816;4.416;2023-05-14T04:37:29;15.50;99.90
25753;DHT22;13600;50.816;4.416;2023-05-14T04:39:55;15.40;99.90
25753;DHT22;13600;50.816;4.416;2023-05-14T04:42:21;15.50;99.90
25753;DHT22;13600;50.816;4.416;2023-05-14T04:44:46;15.40;99.90
25753;DHT22;13600;50.816;4.416;2023-05-14T04:47:12;15.30;99.90
25753;DHT22;13600;50.816;4.416;2023-05-14T04:49:37;15.00;99.90
25753;DHT22;13600;50.816;4.416;2023-05-14T04:52:03;15.10;99.90
25753;DHT22;13600;50.816;4.416;2023-05-14T04:54:28;15.20;99.90
25753;DHT22;13600;50.816;4.416;2023-05-14T04:56:54;15.20;99.90
25753;DHT22;13600;50.816;4.416;2023-05-14T04:59:20;15.40;99.90
25753;DHT22;13600;50.816;4.416;2023-05-14T05:01:46;15.40;99.90
25753;DHT22;13600;50.816;4.416;2023-05-14T05:04:11;15.60;99.90
25753;DHT22;13600;50.816;4.416;2023-05-14T05:06:37;15.50;99.90
25753;DHT22;13600;50.816;4.416;2023-05-14T05:09:02;15.60;99.90
25753;DHT22;13600;50.816;4.416;2023-05-14T05:11:28;15.60;99.90
25753;DHT22;13600;50.816;4.416;2023-05-14T05:13:54;15.80;99.90
25753;DHT22;13600;50.816;4.416;2023-05-14T05:16:19;15.90;99.90
25753;DHT22;13600;50.816;4.416;2023-05-14T05:18:46;15.90;99.90
25753;DHT22;13600;50.816;4.416;2023-05-14T05:21:12;15.90;99.90
25753;DHT22;13600;50.816;4.416;2023-05-14T05:23:38;15.80;99.90
25753;DHT22;13600;50.816;4.416;2023-05-14T05:26:03;15.80;99.90
25753;DHT22;13600;50.816;4.416;2023-05-14T05:28:29;16.00;99.90
25753;DHT22;13600;50.816;4.416;2023-05-14T05:30:54;16.10;99.90
25753;DHT22;13600;50.816;4.416;2023-05-14T05:33:20;16.30;99.90
25753;DHT22;13600;50.816;4.416;2023-05-14T05:35:45;16.50;99.90
25753;DHT22;13600;50.816;4.416;2023-05-14T05:38:12;16.40;99.90
25753;DHT22;13600;50.816;4.416;2023-05-14T05:40:39;16.10;99.90
25753;DHT22;13600;50.816;4.416;2023-05-14T05:43:05;16.20;99.90
25753;DHT22;13600;50.816;4.416;2023-05-14T05:45:30;16.10;99.90
25753;DHT22;13600;50.816;4.416;2023-05-14T05:47:56;16.00;99.90
25753;DHT22;13600;50.816;4.416;2023-05-14T05:50:21;16.00;99.90
25753;DHT22;13600;50.816;4.416;2023-05-14T05:52:47;15.80;99.90
25753;DHT22;13600;50.816;4.416;2023-05-14T05:55:12;15.80;99.90
25753;DHT22;13600;50.816;4.416;2023-05-14T05:57:38;15.80;99.90
25753;DHT22;13600;50.816;4.416;2023-05-14T06:00:03;15.80;99.90
25753;DHT22;13600;50.816;4.416;2023-05-14T06:02:39;15.70;99.90
25753;DHT22;13600;50.816;4.416;2023-05-14T06:05:05;16.00;99.90
25753;DHT22;13600;50.816;4.416;2023-05-14T06:07:31;16.10;99.90
25753;DHT22;13600;50.816;4.416;2023-05-14T06:09:56;16.20;99.90
25753;DHT22;13600;50.816;4.416;2023-05-14T06:12:22;16.20;99.90
25753;DHT22;13600;50.816;4.416;2023-05-14T06:14:47;16.20;99.90
25753;DHT22;13600;50.816;4.416;2023-05-14T06:17:13;16.30;99.90
25753;DHT22;13600;50.816;4.416;2023-05-14T06:19:38;16.30;99.90
25753;DHT22;13600;50.816;4.416;2023-05-14T06:22:04;16.40;99.90
25753;DHT22;13600;50.816;4.416;2023-05-14T06:24:29;16.20;99.90
25753;DHT22;13600;50.816;4.416;2023-05-14T06:26:55;16.20;99.90
25753;DHT22;13600;50.816;4.416;2023-05-14T06:29:20;16.10;99.90
25753;DHT22;13600;50.816;4.416;2023-05-14T06:31:46;16.30;99.90
25753;DHT22;13600;50.816;4.416;2023-05-14T06:34:11;16.50;99.90
25753;DHT22;13600;50.816;4.416;2023-05-14T06:36:37;16.30;99.90
25753;DHT22;13600;50.816;4.416;2023-05-14T06:39:02;16.50;99.90
25753;DHT22;13600;50.816;4.416;2023-05-14T06:41:29;16.50;99.90
25753;DHT22;13600;50.816;4.416;2023-05-14T06:43:55;16.60;99.90
25753;DHT22;13600;50.816;4.416;2023-05-14T06:46:20;16.40;99.90
25753;DHT22;13600;50.816;4.416;2023-05-14T06:48:46;16.60;99.90
25753;DHT22;13600;50.816;4.416;2023-05-14T06:51:11;16.70;99.90
25753;DHT22;13600;50.816;4.416;2023-05-14T06:53:37;16.80;99.90
25753;DHT22;13600;50.816;4.416;2023-05-14T06:56:03;16.50;99.90
25753;DHT22;13600;50.816;4.416;2023-05-14T06:58:29;16.50;99.90
25753;DHT22;13600;50.816;4.416;2023-05-14T07:00:54;16.70;99.90
25753;DHT22;13600;50.816;4.416;2023-05-14T07:03:20;16.80;99.90
25753;DHT22;13600;50.816;4.416;2023-05-14T07:05:46;16.50;99.90
25753;DHT22;13600;50.816;4.416;2023-05-14T07:08:12;16.20;99.90
25753;DHT22;13600;50.816;4.416;2023-05-14T07:10:38;16.20;99.90
25753;DHT22;13600;50.816;4.416;2023-05-14T07:13:03;16.30;99.90
25753;DHT22;13600;50.816;4.416;2023-05-14T07:15:29;16.60;99.90
25753;DHT22;13600;50.816;4.416;2023-05-14T07:17:55;16.60;99.90
25753;DHT22;13600;50.816;4.416;2023-05-14T07:20:20;16.80;99.90
25753;DHT22;13600;50.816;4.416;2023-05-14T07:22:48;16.90;99.90
25753;DHT22;13600;50.816;4.416;2023-05-14T07:25:13;16.60;99.90
25753;DHT22;13600;50.816;4.416;2023-05-14T07:27:39;16.50;99.90
25753;DHT22;13600;50.816;4.416;2023-05-14T07:30:05;16.30;99.90
25753;DHT22;13600;50.816;4.416;2023-05-14T07:32:31;16.40;99.90
25753;DHT22;13600;50.816;4.416;2023-05-14T07:34:56;16.60;99.90
25753;DHT22;13600;50.816;4.416;2023-05-14T07:37:22;16.60;99.90
25753;DHT22;13600;50.816;4.416;2023-05-14T07:39:52;16.60;99.90
25753;DHT22;13600;50.816;4.416;2023-05-14T07:42:18;16.40;99.90
25753;DHT22;13600;50.816;4.416;2023-05-14T07:44:44;16.40;99.90
25753;DHT22;13600;50.816;4.416;2023-05-14T07:47:10;16.40;99.90
25753;DHT22;13600;50.816;4.416;2023-05-14T07:49:35;16.60;99.90
25753;DHT22;13600;50.816;4.416;2023-05-14T07:52:01;16.70;99.90
25753;DHT22;13600;50.816;4.416;2023-05-14T07:54:27;16.70;99.90
25753;DHT22;13600;50.816;4.416;2023-05-14T07:56:52;16.80;99.90
25753;DHT22;13600;50.816;4.416;2023-05-14T07:59:18;16.90;99.90
25753;DHT22;13600;50.816;4.416;2023-05-14T08:01:44;17.10;99.90
25753;DHT22;13600;50.816;4.416;2023-05-14T08:04:10;17.20;99.90
25753;DHT22;13600;50.816;4.416;2023-05-14T08:06:40;17.20;99.90
25753;DHT22;13600;50.816;4.416;2023-05-14T08:09:06;17.10;99.90
25753;DHT22;13600;50.816;4.416;2023-05-14T08:11:33;17.10;99.90
25753;DHT22;13600;50.816;4.416;2023-05-14T08:13:58;17.00;99.90
25753;DHT22;13600;50.816;4.416;2023-05-14T08:16:24;17.20;99.90
25753;DHT22;13600;50.816;4.416;2023-05-14T08:18:50;17.20;99.90
25753;DHT22;13600;50.816;4.416;2023-05-14T08:21:16;17.20;99.90
25753;DHT22;13600;50.816;4.416;2023-05-14T08:23:41;17.30;99.90
25753;DHT22;13600;50.816;4.416;2023-05-14T08:26:07;17.90;99.90
25753;DHT22;13600;50.816;4.416;2023-05-14T08:28:33;18.20;99.90
25753;DHT22;13600;50.816;4.416;2023-05-14T08:30:58;18.30;99.90
25753;DHT22;13600;50.816;4.416;2023-05-14T08:33:23;18.40;99.90
25753;DHT22;13600;50.816;4.416;2023-05-14T08:35:51;18.20;99.90
25753;DHT22;13600;50.816;4.416;2023-05-14T08:38:17;18.10;99.90
25753;DHT22;13600;50.816;4.416;2023-05-14T08:40:46;18.10;99.90
25753;DHT22;13600;50.816;4.416;2023-05-14T08:43:12;18.10;99.90
25753;DHT22;13600;50.816;4.416;2023-05-14T08:45:39;17.90;99.90
25753;DHT22;13600;50.816;4.416;2023-05-14T08:48:05;17.70;99.90
25753;DHT22;13600;50.816;4.416;2023-05-14T08:50:33;17.70;99.90
25753;DHT22;13600;50.816;4.416;2023-05-14T08:53:00;17.50;99.90
25753;DHT22;13600;50.816;4.416;2023-05-14T08:55:27;17.60;99.90
25753;DHT22;13600;50.816;4.416;2023-05-14T08:57:52;17.90;99.90
25753;DHT22;13600;50.816;4.416;2023-05-14T09:00:19;18.20;99.90
25753;DHT22;13600;50.816;4.416;2023-05-14T09:02:44;18.20;99.90
25753;DHT22;13600;50.816;4.416;2023-05-14T09:05:10;18.50;99.90
25753;DHT22;13600;50.816;4.416;2023-05-14T09:07:36;18.80;99.90
25753;DHT22;13600;50.816;4.416;2023-05-14T09:10:02;18.60;99.90
25753;DHT22;13600;50.816;4.416;2023-05-14T09:12:28;18.60;99.90
25753;DHT22;13600;50.816;4.416;2023-05-14T09:14:53;18.80;99.90
25753;DHT22;13600;50.816;4.416;2023-05-14T09:17:19;19.10;99.90
25753;DHT22;13600;50.816;4.416;2023-05-14T09:19:45;18.90;99.90
25753;DHT22;13600;50.816;4.416;2023-05-14T09:22:14;19.20;99.90
25753;DHT22;13600;50.816;4.416;2023-05-14T09:24:40;19.60;99.90
25753;DHT22;13600;50.816;4.416;2023-05-14T09:27:06;19.90;99.90
25753;DHT22;13600;50.816;4.416;2023-05-14T09:29:32;19.70;99.90
25753;DHT22;13600;50.816;4.416;2023-05-14T09:31:58;19.80;99.90
25753;DHT22;13600;50.816;4.416;2023-05-14T09:34:25;19.50;99.90
25753;DHT22;13600;50.816;4.416;2023-05-14T09:37:01;19.50;99.90
25753;DHT22;13600;50.816;4.416;2023-05-14T09:39:27;19.60;99.90
25753;DHT22;13600;50.816;4.416;2023-05-14T09:41:53;21.80;99.90
25753;DHT22;13600;50.816;4.416;2023-05-14T09:44:19;23.70;99.90
25753;DHT22;13600;50.816;4.416;2023-05-14T09:46:45;26.20;99.90
25753;DHT22;13600;50.816;4.416;2023-05-14T09:49:11;28.00;99.90
25753;DHT22;13600;50.816;4.416;2023-05-14T09:51:36;28.20;99.90
25753;DHT22;13600;50.816;4.416;2023-05-14T09:54:02;27.90;99.50
25753;DHT22;13600;50.816;4.416;2023-05-14T09:56:28;27.30;99.90
25753;DHT22;13600;50.816;4.416;2023-05-14T09:58:54;27.90;99.70
25753;DHT22;13600;50.816;4.416;2023-05-14T10:01:19;28.10;97.70
25753;DHT22;13600;50.816;4.416;2023-05-14T10:03:46;28.50;97.50
25753;DHT22;13600;50.816;4.416;2023-05-14T10:06:12;29.80;95.70
25753;DHT22;13600;50.816;4.416;2023-05-14T10:08:40;31.10;91.70
25753;DHT22;13600;50.816;4.416;2023-05-14T10:11:10;31.80;87.50
25753;DHT22;13600;50.816;4.416;2023-05-14T10:13:38;29.50;90.70
25753;DHT22;13600;50.816;4.416;2023-05-14T10:16:10;30.20;90.60
25753;DHT22;13600;50.816;4.416;2023-05-14T10:18:41;31.20;87.20
25753;DHT22;13600;50.816;4.416;2023-05-14T10:21:07;29.70;87.50
25753;DHT22;13600;50.816;4.416;2023-05-14T10:23:34;30.30;88.00
25753;DHT22;13600;50.816;4.416;2023-05-14T10:26:04;32.20;85.00
25753;DHT22;13600;50.816;4.416;2023-05-14T10:28:30;32.60;80.20
25753;DHT22;13600;50.816;4.416;2023-05-14T10:30:56;31.10;82.10
25753;DHT22;13600;50.816;4.416;2023-05-14T10:33:23;30.10;84.90
25753;DHT22;13600;50.816;4.416;2023-05-14T10:36:07;31.20;82.20
25753;DHT22;13600;50.816;4.416;2023-05-14T10:38:34;31.70;81.50
25753;DHT22;13600;50.816;4.416;2023-05-14T10:43:26;32.50;76.80
25753;DHT22;13600;50.816;4.416;2023-05-14T10:45:53;33.80;76.10
25753;DHT22;13600;50.816;4.416;2023-05-14T10:48:18;34.00;73.10
25753;DHT22;13600;50.816;4.416;2023-05-14T10:50:46;33.80;71.20
25753;DHT22;13600;50.816;4.416;2023-05-14T10:53:12;34.00;71.60
25753;DHT22;13600;50.816;4.416;2023-05-14T10:55:37;34.90;70.50
25753;DHT22;13600;50.816;4.416;2023-05-14T10:58:03;35.80;69.20
25753;DHT22;13600;50.816;4.416;2023-05-14T11:00:29;35.70;65.60
25753;DHT22;13600;50.816;4.416;2023-05-14T11:02:57;35.60;63.80
25753;DHT22;13600;50.816;4.416;2023-05-14T11:05:22;35.70;66.20
25753;DHT22;13600;50.816;4.416;2023-05-14T11:07:51;35.00;63.20
25753;DHT22;13600;50.816;4.416;2023-05-14T11:10:20;34.20;67.40
25753;DHT22;13600;50.816;4.416;2023-05-14T11:12:46;35.10;65.20
25753;DHT22;13600;50.816;4.416;2023-05-14T11:15:16;35.70;63.10
25753;DHT22;13600;50.816;4.416;2023-05-14T11:17:42;35.90;61.40
25753;DHT22;13600;50.816;4.416;2023-05-14T11:20:08;36.20;60.70
25753;DHT22;13600;50.816;4.416;2023-05-14T11:22:35;36.50;59.00
25753;DHT22;13600;50.816;4.416;2023-05-14T11:25:01;36.60;59.40
25753;DHT22;13600;50.816;4.416;2023-05-14T11:27:26;35.90;59.10
25753;DHT22;13600;50.816;4.416;2023-05-14T11:29:52;36.60;59.60
25753;DHT22;13600;50.816;4.416;2023-05-14T11:32:18;36.60;58.50
25753;DHT22;13600;50.816;4.416;2023-05-14T11:34:44;36.90;58.20
25753;DHT22;13600;50.816;4.416;2023-05-14T11:37:10;37.00;57.00
25753;DHT22;13600;50.816;4.416;2023-05-14T11:39:37;35.60;58.70
25753;DHT22;13600;50.816;4.416;2023-05-14T11:42:03;35.60;59.40
25753;DHT22;13600;50.816;4.416;2023-05-14T11:44:30;36.00;60.00
25753;DHT22;13600;50.816;4.416;2023-05-14T11:46:56;36.00;58.10
25753;DHT22;13600;50.816;4.416;2023-05-14T11:49:22;35.60;59.40
25753;DHT22;13600;50.816;4.416;2023-05-14T11:51:48;35.90;58.80
25753;DHT22;13600;50.816;4.416;2023-05-14T11:54:14;35.60;58.40
25753;DHT22;13600;50.816;4.416;2023-05-14T11:56:40;35.70;58.30
25753;DHT22;13600;50.816;4.416;2023-05-14T11:59:06;35.70;59.60
25753;DHT22;13600;50.816;4.416;2023-05-14T12:01:35;36.00;59.40
25753;DHT22;13600;50.816;4.416;2023-05-14T12:04:02;37.20;59.40
25753;DHT22;13600;50.816;4.416;2023-05-14T12:06:31;37.50;57.60
25753;DHT22;13600;50.816;4.416;2023-05-14T12:08:56;37.10;57.20
25753;DHT22;13600;50.816;4.416;2023-05-14T12:11:22;37.00;56.60
25753;DHT22;13600;50.816;4.416;2023-05-14T12:13:47;36.60;57.60
25753;DHT22;13600;50.816;4.416;2023-05-14T12:16:13;36.30;57.00
25753;DHT22;13600;50.816;4.416;2023-05-14T12:18:38;36.10;58.00
25753;DHT22;13600;50.816;4.416;2023-05-14T12:21:04;36.20;57.80
25753;DHT22;13600;50.816;4.416;2023-05-14T12:23:32;37.20;57.50
25753;DHT22;13600;50.816;4.416;2023-05-14T12:26:03;36.70;56.80
25753;DHT22;13600;50.816;4.416;2023-05-14T12:28:30;37.10;56.10
25753;DHT22;13600;50.816;4.416;2023-05-14T12:30:56;38.00;57.10
25753;DHT22;13600;50.816;4.416;2023-05-14T12:33:22;37.70;56.70
25753;DHT22;13600;50.816;4.416;2023-05-14T12:35:48;37.30;55.40
25753;DHT22;13600;50.816;4.416;2023-05-14T12:38:14;36.30;56.30
25753;DHT22;13600;50.816;4.416;2023-05-14T12:40:40;35.50;57.40
25753;DHT22;13600;50.816;4.416;2023-05-14T12:43:05;36.70;56.70
25753;DHT22;13600;50.816;4.416;2023-05-14T12:45:31;37.60;56.90
25753;DHT22;13600;50.816;4.416;2023-05-14T12:47:56;37.70;56.00
25753;DHT22;13600;50.816;4.416;2023-05-14T12:50:22;38.10;56.00
25753;DHT22;13600;50.816;4.416;2023-05-14T12:52:47;37.70;54.60
25753;DHT22;13600;50.816;4.416;2023-05-14T12:55:13;37.20;54.40
25753;DHT22;13600;50.816;4.416;2023-05-14T12:57:38;37.10;55.80
25753;DHT22;13600;50.816;4.416;2023-05-14T13:00:04;37.20;54.80
25753;DHT22;13600;50.816;4.416;2023-05-14T13:02:34;37.60;54.80
25753;DHT22;13600;50.816;4.416;2023-05-14T13:05:00;38.60;54.40
25753;DHT22;13600;50.816;4.416;2023-05-14T13:07:29;39.00;53.30
25753;DHT22;13600;50.816;4.416;2023-05-14T13:09:54;38.70;53.40
25753;DHT22;13600;50.816;4.416;2023-05-14T13:12:20;38.50;52.20
25753;DHT22;13600;50.816;4.416;2023-05-14T13:14:46;38.40;52.50
25753;DHT22;13600;50.816;4.416;2023-05-14T13:17:11;38.00;52.80
25753;DHT22;13600;50.816;4.416;2023-05-14T13:19:37;36.90;53.90
25753;DHT22;13600;50.816;4.416;2023-05-14T13:22:02;35.70;55.70
25753;DHT22;13600;50.816;4.416;2023-05-14T13:24:28;35.50;57.00
25753;DHT22;13600;50.816;4.416;2023-05-14T13:26:53;35.60;56.70
25753;DHT22;13600;50.816;4.416;2023-05-14T13:29:19;35.70;54.90
25753;DHT22;13600;50.816;4.416;2023-05-14T13:31:44;36.10;56.70
25753;DHT22;13600;50.816;4.416;2023-05-14T13:34:10;36.50;53.80
25753;DHT22;13600;50.816;4.416;2023-05-14T13:36:37;35.30;55.50
25753;DHT22;13600;50.816;4.416;2023-05-14T13:39:06;35.30;55.70
25753;DHT22;13600;50.816;4.416;2023-05-14T13:41:32;36.20;55.40
25753;DHT22;13600;50.816;4.416;2023-05-14T13:43:59;36.10;54.00
25753;DHT22;13600;50.816;4.416;2023-05-14T13:46:25;36.90;54.00
25753;DHT22;13600;50.816;4.416;2023-05-14T13:48:50;37.10;53.90
25753;DHT22;13600;50.816;4.416;2023-05-14T13:51:16;36.60;54.00
25753;DHT22;13600;50.816;4.416;2023-05-14T13:53:42;36.30;55.20
25753;DHT22;13600;50.816;4.416;2023-05-14T13:56:08;36.10;54.70
25753;DHT22;13600;50.816;4.416;2023-05-14T13:58:34;35.20;55.70
25753;DHT22;13600;50.816;4.416;2023-05-14T14:00:59;35.90;56.00
25753;DHT22;13600;50.816;4.416;2023-05-14T14:03:25;36.20;54.00
25753;DHT22;13600;50.816;4.416;2023-05-14T14:05:50;36.20;55.40
25753;DHT22;13600;50.816;4.416;2023-05-14T14:08:17;35.70;55.50
25753;DHT22;13600;50.816;4.416;2023-05-14T14:10:42;34.80;56.40
25753;DHT22;13600;50.816;4.416;2023-05-14T14:13:08;33.80;57.40
25753;DHT22;13600;50.816;4.416;2023-05-14T14:15:35;33.90;57.80
25753;DHT22;13600;50.816;4.416;2023-05-14T14:18:01;33.90;57.30
25753;DHT22;13600;50.816;4.416;2023-05-14T14:20:26;32.90;58.60
25753;DHT22;13600;50.816;4.416;2023-05-14T14:22:52;32.50;59.80
25753;DHT22;13600;50.816;4.416;2023-05-14T14:25:18;31.90;60.00
25753;DHT22;13600;50.816;4.416;2023-05-14T14:27:43;31.60;59.50
25753;DHT22;13600;50.816;4.416;2023-05-14T14:30:10;31.00;61.80
25753;DHT22;13600;50.816;4.416;2023-05-14T14:32:42;30.60;61.60
25753;DHT22;13600;50.816;4.416;2023-05-14T14:35:11;30.00;63.80
25753;DHT22;13600;50.816;4.416;2023-05-14T14:37:36;29.70;64.40
25753;DHT22;13600;50.816;4.416;2023-05-14T14:40:02;29.50;67.00
25753;DHT22;13600;50.816;4.416;2023-05-14T14:42:28;28.50;69.20
25753;DHT22;13600;50.816;4.416;2023-05-14T14:44:54;28.70;69.40
25753;DHT22;13600;50.816;4.416;2023-05-14T14:47:20;28.70;69.20
25753;DHT22;13600;50.816;4.416;2023-05-14T14:49:45;29.10;69.80
25753;DHT22;13600;50.816;4.416;2023-05-14T14:52:11;29.50;67.60
25753;DHT22;13600;50.816;4.416;2023-05-14T14:54:36;29.40;67.20
25753;DHT22;13600;50.816;4.416;2023-05-14T14:57:02;29.10;67.30
25753;DHT22;13600;50.816;4.416;2023-05-14T14:59:28;28.90;68.20
25753;DHT22;13600;50.816;4.416;2023-05-14T15:01:53;29.30;68.60
25753;DHT22;13600;50.816;4.416;2023-05-14T15:04:19;29.10;69.10
25753;DHT22;13600;50.816;4.416;2023-05-14T15:06:44;29.00;69.10
25753;DHT22;13600;50.816;4.416;2023-05-14T15:09:10;28.60;70.20
25753;DHT22;13600;50.816;4.416;2023-05-14T15:11:35;28.10;71.20
25753;DHT22;13600;50.816;4.416;2023-05-14T15:14:01;27.90;72.30
25753;DHT22;13600;50.816;4.416;2023-05-14T15:16:27;27.60;73.90
25753;DHT22;13600;50.816;4.416;2023-05-14T15:18:52;27.80;74.40
25753;DHT22;13600;50.816;4.416;2023-05-14T15:21:18;27.50;74.00
25753;DHT22;13600;50.816;4.416;2023-05-14T15:23:44;27.20;75.80
25753;DHT22;13600;50.816;4.416;2023-05-14T15:26:09;27.20;77.10
25753;DHT22;13600;50.816;4.416;2023-05-14T15:28:35;27.30;77.40
25753;DHT22;13600;50.816;4.416;2023-05-14T15:31:00;26.90;76.90